createdAt,value
2023-03-05T00:04:59.269Z,22.38
2023-03-05T00:10:18.451Z,25.08
2023-03-05T00:15:44.261Z,19.94
2023-03-05T00:21:07.148Z,21.35
2023-03-05T00:26:34.629Z,28.19
2023-03-05T00:31:58.282Z,20.09
2023-03-05T00:37:23.733Z,23.29
2023-03-05T00:42:48.374Z,23.42
2023-03-05T00:48:07.028Z,20.34
2023-03-05T00:53:32.246Z,21.03
2023-03-05T00:58:55.720Z,21.77
2023-03-05T01:04:20.761Z,23.20
2023-03-05T01:09:39.411Z,23.56
2023-03-05T01:14:57.593Z,21.18
2023-03-05T01:20:22.694Z,22.28
2023-03-05T01:25:47.818Z,18.79
2023-03-05T01:31:08.410Z,22.66
2023-03-05T01:36:53.350Z,23.52
2023-03-05T01:42:17.495Z,22.01
2023-03-05T01:47:41.630Z,19.09
2023-03-05T01:53:00.141Z,20.74
2023-03-05T01:58:21.334Z,20.06
2023-03-05T02:04:04.754Z,23.74
2023-03-05T02:09:22.661Z,22.90
2023-03-05T02:14:48.735Z,20.56
2023-03-05T02:20:11.483Z,21.04
2023-03-05T02:25:29.920Z,21.70
2023-03-05T02:30:48.882Z,22.73
2023-03-05T02:36:07.986Z,19.70
2023-03-05T02:41:32.659Z,21.68
2023-03-05T02:46:56.842Z,22.15
2023-03-05T02:52:22.425Z,22.20
2023-03-05T02:57:43.038Z,20.81
2023-03-05T03:03:31.238Z,21.47
2023-03-05T03:08:55.196Z,25.92
2023-03-05T03:14:14.578Z,19.93
2023-03-05T03:19:39.611Z,21.63
2023-03-05T03:24:58.946Z,20.85
2023-03-05T03:30:20.259Z,23.41
2023-03-05T03:35:45.247Z,18.83
2023-03-05T03:41:10.846Z,23.14
2023-03-05T03:46:33.612Z,21.04
2023-03-05T03:51:56.413Z,25.32
2023-03-05T03:57:38.604Z,22.95
2023-03-05T04:03:01.003Z,22.29
2023-03-05T04:08:25.557Z,18.95
2023-03-05T04:13:43.811Z,22.37
2023-03-05T04:19:07.543Z,19.78
2023-03-05T04:24:32.504Z,21.07
2023-03-05T04:29:57.828Z,20.61
2023-03-05T04:35:19.285Z,20.65
2023-03-05T04:41:02.209Z,24.09
2023-03-05T04:46:25.094Z,21.68
2023-03-05T04:52:08.162Z,23.98
2023-03-05T04:57:30.207Z,22.57
2023-03-05T05:02:53.513Z,24.00
2023-03-05T05:08:12.194Z,24.59
2023-03-05T05:13:37.442Z,23.99
2023-03-05T05:19:01.956Z,23.10
2023-03-05T05:24:26.637Z,17.35
2023-03-05T05:29:50.836Z,25.93
2023-03-05T05:35:15.804Z,23.89
2023-03-05T05:40:40.721Z,21.87
2023-03-05T05:46:06.047Z,22.78
2023-03-05T05:51:25.376Z,24.09
2023-03-05T05:56:44.135Z,17.61
2023-03-05T06:02:08.892Z,22.29
2023-03-05T06:07:26.808Z,22.93
2023-03-05T06:12:45.330Z,21.80
2023-03-05T06:18:10.335Z,22.64
2023-03-05T06:23:35.610Z,22.70
2023-03-05T06:28:54.022Z,25.32
2023-03-05T06:34:18.910Z,22.25
2023-03-05T06:39:42.647Z,23.38
2023-03-05T06:45:06.765Z,18.09
2023-03-05T06:50:26.410Z,21.06
2023-03-05T06:55:52.956Z,22.06
2023-03-05T07:01:16.470Z,24.56
2023-03-05T07:06:40.181Z,21.86
2023-03-05T07:12:02.273Z,20.86
2023-03-05T07:17:39.546Z,22.03
2023-03-05T07:23:03.663Z,23.46
2023-03-05T07:28:28.623Z,22.21
2023-03-05T07:33:54.013Z,21.30
2023-03-05T07:39:18.677Z,19.63
2023-03-05T07:45:20.144Z,18.30
2023-03-05T07:50:37.020Z,15.88
2023-03-05T07:56:02.126Z,14.12
2023-03-05T08:01:28.748Z,15.09
2023-03-05T08:06:48.074Z,14.19
2023-03-05T08:12:13.298Z,13.77
2023-03-05T08:17:38.390Z,14.11
2023-03-05T08:23:23.250Z,11.86
2023-03-05T08:28:43.495Z,12.70
2023-03-05T08:34:06.466Z,12.90
2023-03-05T08:39:30.754Z,13.88
2023-03-05T08:44:55.858Z,13.88
2023-03-05T08:50:21.152Z,10.72
2023-03-05T08:55:44.902Z,10.60
2023-03-05T09:01:14.674Z,11.64
2023-03-05T09:06:33.295Z,10.78
2023-03-05T09:12:18.899Z,9.49
2023-03-05T09:17:37.481Z,10.05
2023-03-05T09:23:02.908Z,11.33
2023-03-05T09:28:25.048Z,8.07
2023-03-05T09:33:49.087Z,8.05
2023-03-05T09:39:31.790Z,7.43
2023-03-05T09:44:55.825Z,6.08
2023-03-05T09:50:26.472Z,4.77
2023-03-05T09:56:19.226Z,8.08
2023-03-05T10:01:38.073Z,6.47
2023-03-05T10:07:01.723Z,6.50
2023-03-05T10:12:52.161Z,6.05
2023-03-05T10:18:10.427Z,8.17
2023-03-05T10:24:17.454Z,6.55
2023-03-05T10:29:41.405Z,6.88
2023-03-05T10:35:33.921Z,8.30
2023-03-05T10:41:07.418Z,6.68
2023-03-05T10:46:50.032Z,6.79
2023-03-05T10:52:27.928Z,7.54
2023-03-05T10:57:46.410Z,6.77
2023-03-05T11:03:11.485Z,7.07
2023-03-05T11:08:36.980Z,4.87
2023-03-05T11:13:56.134Z,7.14
2023-03-05T11:19:21.848Z,5.92
2023-03-05T11:24:47.027Z,4.59
2023-03-05T11:30:31.708Z,5.10
2023-03-05T11:35:55.457Z,7.33
2023-03-05T11:41:39.147Z,5.88
2023-03-05T11:47:01.298Z,6.19
2023-03-05T11:52:28.165Z,6.49
2023-03-05T11:57:52.504Z,6.68
2023-03-05T12:03:13.086Z,5.16
2023-03-05T12:08:36.684Z,8.13
2023-03-05T12:14:02.326Z,5.40
2023-03-05T12:19:23.284Z,6.85
2023-03-05T12:24:58.071Z,7.09
2023-03-05T12:30:35.869Z,5.62
2023-03-05T12:36:11.597Z,6.14
2023-03-05T12:41:54.706Z,5.00
2023-03-05T12:47:19.823Z,5.88
2023-03-05T12:53:01.815Z,5.42
2023-03-05T12:58:22.019Z,3.45
2023-03-05T13:03:42.497Z,3.51
2023-03-05T13:09:06.066Z,3.78
2023-03-05T13:14:59.994Z,5.92
2023-03-05T13:20:20.467Z,5.45
2023-03-05T13:25:52.536Z,5.94
2023-03-05T13:31:15.048Z,6.45
2023-03-05T13:36:38.898Z,4.76
2023-03-05T13:42:00.924Z,6.45
2023-03-05T13:47:28.317Z,4.39
2023-03-05T13:52:51.932Z,5.05
2023-03-05T13:58:14.567Z,7.08
2023-03-05T14:04:00.272Z,5.55
2023-03-05T14:09:24.640Z,5.58
2023-03-05T14:14:48.165Z,7.42
2023-03-05T14:20:10.331Z,4.07
2023-03-05T14:25:44.875Z,4.73
2023-03-05T14:31:09.311Z,5.38
2023-03-05T14:37:38.960Z,5.40
2023-03-05T14:42:58.436Z,5.44
2023-03-05T14:48:16.471Z,7.00
2023-03-05T14:53:41.124Z,6.07
2023-03-05T14:59:05.701Z,7.29
2023-03-05T15:04:29.482Z,7.91
2023-03-05T15:10:07.835Z,5.01
2023-03-05T15:15:26.201Z,5.85
2023-03-05T15:20:49.552Z,5.78
2023-03-05T15:26:11.257Z,6.43
2023-03-05T15:31:36.126Z,6.46
2023-03-05T15:37:01.264Z,5.17
2023-03-05T15:42:26.024Z,4.40
2023-03-05T15:48:05.029Z,4.09
2023-03-05T15:53:29.376Z,5.38
2023-03-05T15:58:48.245Z,6.68
2023-03-05T16:04:36.231Z,5.94
2023-03-05T16:10:18.224Z,5.37
2023-03-05T16:15:41.723Z,5.06
2023-03-05T16:21:06.800Z,4.07
2023-03-05T16:26:47.123Z,5.33
2023-03-05T16:32:10.771Z,4.12
2023-03-05T16:37:34.713Z,7.01
2023-03-05T16:43:23.517Z,5.07
2023-03-05T16:48:47.117Z,4.87
2023-03-05T16:54:10.063Z,5.15
2023-03-05T16:59:33.368Z,7.72
2023-03-05T17:04:55.357Z,6.31
2023-03-05T17:10:14.318Z,5.03
2023-03-05T17:15:49.113Z,6.14
2023-03-05T17:21:13.009Z,6.29
2023-03-05T17:26:37.830Z,6.35
2023-03-05T17:31:59.114Z,6.55
2023-03-05T17:37:23.932Z,6.36
2023-03-05T17:42:46.074Z,6.49
2023-03-05T17:48:09.558Z,6.45
2023-03-05T17:53:34.036Z,7.14
2023-03-05T17:58:57.620Z,7.85
2023-03-05T18:04:37.432Z,11.41
2023-03-05T18:10:01.631Z,8.56
2023-03-05T18:15:26.964Z,8.31
2023-03-05T18:20:52.119Z,10.96
2023-03-05T18:26:16.421Z,9.00
2023-03-05T18:31:39.688Z,9.49
2023-03-05T18:37:03.141Z,9.04
2023-03-05T18:42:22.201Z,10.85
2023-03-05T18:47:47.066Z,11.21
2023-03-05T18:53:09.796Z,11.28
2023-03-05T18:58:34.377Z,7.32
2023-03-05T19:03:52.850Z,7.69
2023-03-05T19:09:11.216Z,10.64
2023-03-05T19:14:33.988Z,11.96
2023-03-05T19:19:56.657Z,8.56
2023-03-05T19:25:21.883Z,9.54
2023-03-05T19:30:46.972Z,8.70
2023-03-05T19:36:12.106Z,8.63
2023-03-05T19:47:58.989Z,8.06
2023-03-05T19:53:23.233Z,11.66
2023-03-05T19:58:44.257Z,7.99
2023-03-05T20:04:08.102Z,7.01
2023-03-05T20:09:32.969Z,7.44
2023-03-05T20:14:58.098Z,8.23
2023-03-05T20:20:24.433Z,9.33
2023-03-05T20:25:49.499Z,8.50
2023-03-05T20:31:14.447Z,8.24
2023-03-05T20:36:36.448Z,6.90
2023-03-05T20:41:54.233Z,8.50
2023-03-05T20:47:19.502Z,7.49
2023-03-05T20:52:44.260Z,6.98
2023-03-05T20:58:09.364Z,6.07
2023-03-05T21:03:33.216Z,9.05
2023-03-05T21:08:52.047Z,7.41
2023-03-05T21:14:12.356Z,7.78
2023-03-05T21:19:33.817Z,8.46
2023-03-05T21:24:57.367Z,7.22
2023-03-05T21:30:15.670Z,9.10
2023-03-05T21:35:34.877Z,7.34
2023-03-05T21:40:59.551Z,8.19
2023-03-05T21:46:24.442Z,10.12
2023-03-05T21:51:48.820Z,10.36
2023-03-05T21:57:07.656Z,13.23
2023-03-05T22:02:32.480Z,14.38
2023-03-05T22:07:55.895Z,8.16
2023-03-05T22:13:20.402Z,7.57
2023-03-05T22:18:44.711Z,5.89
2023-03-05T22:24:09.073Z,5.69
2023-03-05T22:29:33.942Z,7.75
2023-03-05T22:35:13.274Z,6.85
2023-03-05T22:40:36.993Z,7.00
2023-03-05T22:45:55.517Z,6.13
2023-03-05T22:51:43.837Z,6.71
2023-03-05T22:57:02.054Z,6.88
2023-03-05T23:02:27.443Z,7.52
2023-03-05T23:07:51.603Z,7.86
2023-03-05T23:13:31.151Z,7.16
2023-03-05T23:18:52.534Z,6.14
2023-03-05T23:24:16.744Z,6.25
2023-03-05T23:29:41.780Z,5.44
2023-03-05T23:35:02.964Z,5.82
2023-03-05T23:40:22.084Z,4.82
2023-03-05T23:45:44.641Z,8.38
2023-03-05T23:51:02.881Z,5.80
2023-03-05T23:56:26.981Z,6.19
